createdAt,value
2018-03-08T00:02:22.266Z,80.00
2018-03-08T00:04:50.630Z,80.10
2018-03-08T00:07:18.248Z,80.00
2018-03-08T00:09:45.813Z,79.80
2018-03-08T00:12:13.446Z,79.70
2018-03-08T00:14:41.050Z,80.00
2018-03-08T00:17:08.612Z,79.70
2018-03-08T00:19:36.257Z,79.70
2018-03-08T00:22:03.844Z,79.70
2018-03-08T00:24:31.448Z,79.50
2018-03-08T00:26:59.812Z,79.60
2018-03-08T00:29:28.178Z,79.50
2018-03-08T00:31:55.741Z,79.50
2018-03-08T00:34:23.374Z,79.50
2018-03-08T00:36:51.027Z,79.60
2018-03-08T00:39:18.614Z,79.60
2018-03-08T00:41:46.183Z,79.50
2018-03-08T00:44:14.568Z,79.10
2018-03-08T00:46:42.159Z,79.10
2018-03-08T00:49:09.781Z,79.10
2018-03-08T00:51:37.382Z,79.10
2018-03-08T00:54:05.003Z,79.20
2018-03-08T00:56:32.606Z,79.10
2018-03-08T00:59:00.170Z,79.20
2018-03-08T01:01:31.335Z,79.40
2018-03-08T01:03:58.912Z,79.40
2018-03-08T01:06:26.526Z,79.00
2018-03-08T01:08:54.096Z,79.60
2018-03-08T01:11:21.739Z,78.80
2018-03-08T01:13:50.066Z,78.50
2018-03-08T01:16:17.687Z,78.50
2018-03-08T01:18:45.274Z,78.40
2018-03-08T01:21:12.897Z,78.70
2018-03-08T01:23:41.263Z,78.70
2018-03-08T01:26:08.833Z,78.60
2018-03-08T01:28:37.218Z,78.60
2018-03-08T01:31:05.566Z,78.50
2018-03-08T01:33:33.133Z,78.50
2018-03-08T01:36:00.742Z,78.60
2018-03-08T01:38:28.353Z,78.60
2018-03-08T01:40:55.922Z,78.60
2018-03-08T01:43:23.560Z,78.60
2018-03-08T01:45:51.170Z,78.60
2018-03-08T01:48:19.519Z,78.70
2018-03-08T01:50:47.164Z,78.70
2018-03-08T01:53:14.761Z,79.10
2018-03-08T01:55:43.098Z,78.70
2018-03-08T01:58:10.732Z,78.70
2018-03-08T02:00:38.343Z,78.90
2018-03-08T02:03:05.911Z,78.90
2018-03-08T02:05:33.480Z,78.70
2018-03-08T02:08:01.081Z,78.60
2018-03-08T02:10:28.665Z,78.60
2018-03-08T02:12:59.472Z,78.60
2018-03-08T02:15:28.790Z,78.60
2018-03-08T02:17:59.472Z,78.40
2018-03-08T02:20:30.001Z,79.10
2018-03-08T02:23:01.830Z,78.80
2018-03-08T02:25:32.702Z,78.90
2018-03-08T02:28:03.998Z,78.90
2018-03-08T02:30:37.763Z,78.90
2018-03-08T02:33:08.126Z,79.30
2018-03-08T02:35:39.014Z,79.30
2018-03-08T02:38:11.629Z,79.50
2018-03-08T02:40:42.718Z,79.50
2018-03-08T02:43:15.164Z,79.60
2018-03-08T02:45:45.032Z,79.50
2018-03-08T02:48:16.391Z,79.90
2018-03-08T02:50:47.152Z,79.80
2018-03-08T02:53:17.728Z,79.90
2018-03-08T02:55:47.642Z,80.20
2018-03-08T02:58:17.558Z,79.90
2018-03-08T03:00:47.313Z,79.70
2018-03-08T03:03:17.254Z,79.60
2018-03-08T03:05:47.146Z,80.00
2018-03-08T03:08:24.225Z,80.20
2018-03-08T03:10:55.584Z,80.30
2018-03-08T03:13:26.060Z,80.10
2018-03-08T03:15:56.891Z,80.10
2018-03-08T03:18:27.076Z,80.10
2018-03-08T03:20:55.449Z,80.00
2018-03-08T03:23:24.045Z,80.10
2018-03-08T03:25:53.047Z,80.00
2018-03-08T03:28:23.574Z,79.90
2018-03-08T03:30:53.434Z,79.90
2018-03-08T03:33:24.065Z,79.70
2018-03-08T03:36:01.666Z,80.20
2018-03-08T03:38:32.335Z,80.50
2018-03-08T03:41:01.932Z,79.30
2018-03-08T03:43:32.710Z,78.80
2018-03-08T03:46:03.371Z,78.10
2018-03-08T03:48:33.144Z,78.50
2018-03-08T03:51:04.637Z,78.60
2018-03-08T03:53:34.636Z,77.10
2018-03-08T03:56:04.150Z,77.00
2018-03-08T03:58:34.925Z,77.40
2018-03-08T04:01:09.197Z,76.60
2018-03-08T04:03:39.049Z,77.10
2018-03-08T04:06:09.492Z,78.00
2018-03-08T04:08:40.190Z,77.80
2018-03-08T04:11:10.067Z,78.00
2018-03-08T04:13:41.539Z,78.20
2018-03-08T04:16:11.206Z,78.20
2018-03-08T04:18:41.968Z,78.50
2018-03-08T04:21:11.434Z,78.90
2018-03-08T04:23:41.019Z,79.30
2018-03-08T04:26:11.787Z,79.30
2018-03-08T04:28:41.364Z,79.30
2018-03-08T04:31:10.898Z,79.10
2018-03-08T04:33:40.693Z,79.50
2018-03-08T04:36:09.880Z,79.70
2018-03-08T04:38:38.181Z,80.10
2018-03-08T04:41:06.825Z,80.10
2018-03-08T04:43:34.423Z,80.50
2018-03-08T04:46:02.027Z,80.80
2018-03-08T04:48:29.666Z,81.00
2018-03-08T04:50:57.282Z,81.00
2018-03-08T04:53:25.619Z,81.00
2018-03-08T04:55:54.068Z,80.80
2018-03-08T04:58:21.661Z,80.80
2018-03-08T05:00:49.303Z,81.00
2018-03-08T05:03:16.931Z,81.00
2018-03-08T05:05:45.283Z,81.40
2018-03-08T05:08:12.905Z,80.80
2018-03-08T05:10:40.488Z,80.90
2018-03-08T05:13:08.099Z,80.50
2018-03-08T05:15:36.438Z,80.80
2018-03-08T05:18:04.083Z,80.80
2018-03-08T05:20:31.667Z,80.60
2018-03-08T05:22:59.285Z,80.70
2018-03-08T05:25:26.899Z,80.80
2018-03-08T05:27:54.490Z,80.80
2018-03-08T05:30:22.115Z,80.80
2018-03-08T05:32:49.706Z,80.90
2018-03-08T05:35:18.043Z,80.70
2018-03-08T05:37:45.655Z,80.70
2018-03-08T05:40:14.014Z,80.30
2018-03-08T05:42:41.667Z,80.30
2018-03-08T05:45:09.267Z,79.90
2018-03-08T05:47:36.836Z,80.30
2018-03-08T05:50:04.449Z,80.60
2018-03-08T05:52:32.055Z,80.60
2018-03-08T05:54:59.648Z,80.80
2018-03-08T05:57:27.276Z,80.70
2018-03-08T05:59:54.848Z,80.80
2018-03-08T06:02:22.458Z,80.30
2018-03-08T06:04:50.078Z,80.00
2018-03-08T06:07:17.713Z,79.90
2018-03-08T06:09:45.338Z,80.30
2018-03-08T06:12:12.909Z,80.30
2018-03-08T06:14:40.513Z,80.20
2018-03-08T06:17:08.087Z,80.40
2018-03-08T06:19:35.703Z,80.70
2018-03-08T06:22:03.312Z,80.90
2018-03-08T06:24:30.997Z,81.10
2018-03-08T06:26:58.610Z,81.20
2018-03-08T06:29:26.990Z,81.00
2018-03-08T06:31:54.590Z,81.10
2018-03-08T06:34:22.243Z,81.00
2018-03-08T06:36:49.886Z,81.80
2018-03-08T06:39:17.503Z,80.90
2018-03-08T06:41:45.934Z,81.30
2018-03-08T06:44:13.509Z,81.30
2018-03-08T06:46:41.153Z,81.00
2018-03-08T06:49:08.762Z,80.20
2018-03-08T06:51:36.330Z,80.10
2018-03-08T06:54:03.898Z,79.30
2018-03-08T06:56:31.538Z,79.50
2018-03-08T06:58:59.140Z,79.30
2018-03-08T07:01:26.740Z,79.90
2018-03-08T07:03:54.399Z,80.00
2018-03-08T07:06:21.989Z,80.00
2018-03-08T07:08:49.643Z,79.50
2018-03-08T07:11:17.268Z,79.00
2018-03-08T07:13:44.887Z,79.40
2018-03-08T07:16:12.458Z,78.30
2018-03-08T07:18:40.806Z,78.40
2018-03-08T07:21:08.423Z,78.40
2018-03-08T07:23:36.010Z,77.50
2018-03-08T07:26:03.805Z,77.10
2018-03-08T07:28:32.538Z,75.80
2018-03-08T07:31:00.256Z,75.80
2018-03-08T07:33:28.116Z,75.60
2018-03-08T07:35:55.880Z,75.10
2018-03-08T07:38:24.750Z,75.40
2018-03-08T07:40:52.378Z,75.40
2018-03-08T07:43:21.236Z,75.10
2018-03-08T07:45:48.809Z,74.60
2018-03-08T07:48:17.390Z,75.20
2018-03-08T07:50:45.079Z,74.20
2018-03-08T07:53:12.718Z,75.00
2018-03-08T07:55:40.311Z,74.10
2018-03-08T07:58:07.960Z,74.20
2018-03-08T08:00:35.602Z,72.90
2018-03-08T08:03:03.223Z,72.70
2018-03-08T08:05:42.579Z,72.20
2018-03-08T08:08:22.015Z,71.50
2018-03-08T08:10:49.668Z,71.10
2018-03-08T08:13:17.348Z,72.20
2018-03-08T08:15:44.985Z,72.30
2018-03-08T08:18:12.675Z,71.90
2018-03-08T08:20:40.287Z,71.90
2018-03-08T08:23:07.917Z,71.00
2018-03-08T08:25:36.384Z,70.50
2018-03-08T08:28:03.962Z,70.40
2018-03-08T08:30:32.314Z,69.00
2018-03-08T08:32:59.976Z,68.90
2018-03-08T08:35:27.563Z,67.80
2018-03-08T08:37:55.183Z,67.40
2018-03-08T08:40:22.795Z,66.60
2018-03-08T08:42:51.486Z,66.80
2018-03-08T08:45:19.490Z,67.00
2018-03-08T09:01:20.240Z,48.40
2018-03-08T09:03:47.967Z,46.90
2018-03-08T09:06:16.644Z,48.60
2018-03-08T09:08:44.324Z,52.60
2018-03-08T09:11:12.699Z,58.20
2018-03-08T09:13:40.314Z,58.10
2018-03-08T09:16:07.923Z,58.80
2018-03-08T09:18:35.505Z,60.60
2018-03-08T09:21:03.887Z,60.20
2018-03-08T09:23:32.285Z,60.20
2018-03-08T09:25:59.891Z,60.20
2018-03-08T09:28:27.461Z,60.60
2018-03-08T09:30:55.056Z,60.00
2018-03-08T09:33:22.684Z,61.70
2018-03-08T09:35:50.255Z,62.00
2018-03-08T09:38:17.875Z,61.00
2018-03-08T09:40:45.483Z,59.80
2018-03-08T09:43:13.156Z,58.50
2018-03-08T09:45:41.498Z,59.40
2018-03-08T09:48:09.067Z,59.40
2018-03-08T09:50:36.725Z,61.50
2018-03-08T09:53:04.323Z,61.90
2018-03-08T09:55:32.725Z,62.80
2018-03-08T09:58:00.306Z,62.80
2018-03-08T10:00:27.897Z,63.20
2018-03-08T10:02:55.490Z,62.20
2018-03-08T10:05:23.059Z,62.30
2018-03-08T10:07:50.670Z,62.80
2018-03-08T10:10:18.218Z,63.40
2018-03-08T10:12:45.824Z,63.20
2018-03-08T10:15:13.417Z,63.20
2018-03-08T10:17:40.996Z,64.00
2018-03-08T10:20:08.605Z,63.30
2018-03-08T10:22:37.074Z,62.10
2018-03-08T10:25:04.691Z,62.10
2018-03-08T10:27:32.265Z,61.20
2018-03-08T10:29:59.847Z,58.80
2018-03-08T10:32:27.510Z,57.50
2018-03-08T10:34:55.096Z,57.20
2018-03-08T10:37:23.471Z,57.40
2018-03-08T10:39:51.079Z,57.40
2018-03-08T10:42:18.746Z,57.50
2018-03-08T10:44:46.331Z,57.50
2018-03-08T10:47:13.919Z,56.80
2018-03-08T10:49:48.325Z,56.10
2018-03-08T10:52:15.891Z,55.90
2018-03-08T10:54:43.506Z,56.20
2018-03-08T10:57:11.098Z,55.70
2018-03-08T10:59:38.670Z,55.90
2018-03-08T11:02:23.054Z,55.70
2018-03-08T11:04:56.217Z,53.90
2018-03-08T11:07:23.843Z,51.30
2018-03-08T11:09:51.480Z,43.30
2018-03-08T11:12:19.904Z,38.90
2018-03-08T11:14:47.458Z,38.90
2018-03-08T11:17:15.053Z,38.20
2018-03-08T11:19:42.637Z,37.70
2018-03-08T11:22:11.000Z,41.60
2018-03-08T11:24:39.370Z,42.30
2018-03-08T11:27:06.976Z,42.10
2018-03-08T11:29:34.595Z,40.20
2018-03-08T11:32:02.197Z,39.70
2018-03-08T11:34:29.830Z,36.70
2018-03-08T11:36:58.179Z,38.20
2018-03-08T11:39:25.770Z,38.20
2018-03-08T11:41:54.183Z,41.60
2018-03-08T11:44:21.737Z,41.60
2018-03-08T11:46:49.343Z,41.90
2018-03-08T11:49:16.935Z,42.90
2018-03-08T11:51:46.349Z,44.00
2018-03-08T11:54:14.687Z,46.10
2018-03-08T11:56:42.249Z,46.00
2018-03-08T11:59:09.851Z,47.20
2018-03-08T12:01:38.188Z,45.00
2018-03-08T12:04:05.841Z,45.00
2018-03-08T12:06:33.468Z,44.30
2018-03-08T12:09:01.111Z,43.60
2018-03-08T12:11:28.744Z,44.40
2018-03-08T12:13:57.250Z,43.90
2018-03-08T12:16:25.635Z,40.90
2018-03-08T12:18:53.966Z,37.10
2018-03-08T12:21:21.570Z,37.00
2018-03-08T12:23:49.920Z,38.80
2018-03-08T12:26:17.544Z,38.70
2018-03-08T12:28:45.160Z,40.10
2018-03-08T12:31:12.779Z,41.40
2018-03-08T12:33:40.378Z,39.90
2018-03-08T12:38:40.911Z,38.10
2018-03-08T12:41:08.487Z,37.50
2018-03-08T12:43:36.710Z,38.20
2018-03-08T12:46:05.710Z,41.10
2018-03-08T12:48:33.325Z,40.50
2018-03-08T12:51:00.885Z,39.90
2018-03-08T12:53:28.503Z,40.00
2018-03-08T12:55:56.093Z,39.90
2018-03-08T12:58:23.690Z,39.90
2018-03-08T13:00:52.223Z,38.40
2018-03-08T13:03:19.797Z,38.20
2018-03-08T13:05:47.423Z,38.50
2018-03-08T13:08:14.986Z,38.60
2018-03-08T13:10:42.609Z,38.40
2018-03-08T13:13:10.202Z,38.30
2018-03-08T13:15:37.807Z,39.10
2018-03-08T13:18:05.413Z,39.10
2018-03-08T13:20:33.777Z,40.90
2018-03-08T13:23:02.202Z,39.30
2018-03-08T13:25:30.589Z,40.00
2018-03-08T13:27:58.199Z,40.00
2018-03-08T13:30:25.759Z,40.60
2018-03-08T13:32:53.378Z,41.10
2018-03-08T13:35:20.954Z,40.90
2018-03-08T13:37:48.567Z,40.50
2018-03-08T13:40:16.134Z,40.60
2018-03-08T13:42:43.738Z,39.90
2018-03-08T13:45:11.363Z,38.40
2018-03-08T13:47:38.947Z,37.80
2018-03-08T13:50:07.515Z,37.80
2018-03-08T13:52:38.095Z,35.60
2018-03-08T13:55:07.003Z,32.70
2018-03-08T13:57:35.379Z,35.80
2018-03-08T14:00:03.803Z,35.00
2018-03-08T14:02:32.211Z,35.00
2018-03-08T14:04:59.807Z,33.70
2018-03-08T14:07:28.135Z,35.70
2018-03-08T14:09:55.752Z,35.60
2018-03-08T14:12:24.133Z,36.30
2018-03-08T14:14:52.454Z,36.80
2018-03-08T14:17:20.019Z,36.80
2018-03-08T14:19:47.623Z,36.40
2018-03-08T14:22:15.950Z,35.00
2018-03-08T14:24:43.622Z,34.90
2018-03-08T14:27:11.245Z,34.60
2018-03-08T14:29:38.862Z,35.00
2018-03-08T14:32:06.552Z,35.70
2018-03-08T14:34:34.875Z,36.20
2018-03-08T14:39:35.430Z,34.60
2018-03-08T14:42:03.168Z,34.60
2018-03-08T14:44:31.025Z,34.90
2018-03-08T14:46:59.462Z,35.30
2018-03-08T14:49:27.059Z,35.40
2018-03-08T14:51:55.422Z,37.70
2018-03-08T14:54:23.041Z,37.70
2018-03-08T14:56:50.814Z,39.00
2018-03-08T14:59:18.384Z,37.60
2018-03-08T15:01:46.019Z,36.50
2018-03-08T15:04:13.663Z,36.60
2018-03-08T15:06:42.072Z,39.30
2018-03-08T15:09:09.641Z,39.30
2018-03-08T15:11:37.223Z,38.50
2018-03-08T15:14:04.840Z,38.20
2018-03-08T15:16:32.419Z,39.50
2018-03-08T15:19:00.031Z,37.10
2018-03-08T15:21:27.657Z,37.00
2018-03-08T15:23:55.463Z,37.40
2018-03-08T15:26:23.075Z,36.90
2018-03-08T15:28:50.682Z,37.30
2018-03-08T15:31:18.255Z,35.30
2018-03-08T15:33:46.638Z,35.70
2018-03-08T15:36:14.977Z,35.70
2018-03-08T15:38:44.558Z,35.70
2018-03-08T15:41:12.154Z,35.30
2018-03-08T15:43:39.767Z,35.30
2018-03-08T15:46:07.336Z,34.90
2018-03-08T15:48:35.145Z,35.40
2018-03-08T15:51:02.731Z,36.50
2018-03-08T15:53:31.091Z,37.10
2018-03-08T15:55:58.711Z,37.10
2018-03-08T15:58:27.036Z,37.80
2018-03-08T16:00:54.756Z,37.70
2018-03-08T16:03:22.351Z,37.30
2018-03-08T16:05:49.937Z,37.90
2018-03-08T16:08:25.368Z,38.40
2018-03-08T16:10:53.728Z,38.70
2018-03-08T16:13:21.347Z,38.60
2018-03-08T16:15:48.919Z,38.80
2018-03-08T16:18:16.566Z,38.90
2018-03-08T16:20:44.125Z,38.90
2018-03-08T16:23:11.752Z,39.40
2018-03-08T16:25:39.394Z,38.90
2018-03-08T16:28:06.959Z,38.80
2018-03-08T16:30:36.568Z,38.80
2018-03-08T16:33:04.175Z,38.80
2018-03-08T16:35:31.747Z,38.40
2018-03-08T16:37:59.482Z,38.60
2018-03-08T16:40:27.872Z,38.50
2018-03-08T16:42:56.256Z,38.60
2018-03-08T16:45:24.677Z,38.30
2018-03-08T16:47:52.272Z,38.30
2018-03-08T16:50:19.876Z,38.50
2018-03-08T16:52:47.436Z,38.20
2018-03-08T16:55:15.120Z,37.50
2018-03-08T16:57:42.723Z,38.20
2018-03-08T17:00:11.095Z,37.20
2018-03-08T17:02:38.735Z,36.90
2018-03-08T17:05:06.320Z,36.90
2018-03-08T17:07:33.927Z,37.20
2018-03-08T17:10:01.550Z,37.40
2018-03-08T17:12:29.202Z,37.60
2018-03-08T17:14:56.818Z,38.10
2018-03-08T17:17:24.390Z,38.30
2018-03-08T17:19:52.018Z,38.70
2018-03-08T17:22:20.388Z,39.30
2018-03-08T17:24:48.754Z,39.50
2018-03-08T17:27:16.424Z,39.50
2018-03-08T17:29:44.037Z,39.60
2018-03-08T17:32:11.655Z,39.90
2018-03-08T17:34:39.979Z,40.30
2018-03-08T17:37:07.560Z,40.30
2018-03-08T17:39:35.180Z,40.30
2018-03-08T17:42:02.788Z,40.50
2018-03-08T17:44:30.398Z,40.60
2018-03-08T17:46:58.003Z,40.60
2018-03-08T17:49:25.619Z,40.70
2018-03-08T17:51:53.218Z,40.80
2018-03-08T17:54:20.845Z,41.00
2018-03-08T17:56:49.204Z,41.20
2018-03-08T17:59:17.572Z,41.10
2018-03-08T18:01:45.181Z,41.10
2018-03-08T18:04:12.744Z,41.50
2018-03-08T18:06:40.784Z,41.60
2018-03-08T18:09:09.517Z,41.70
2018-03-08T18:11:37.340Z,41.90
2018-03-08T18:14:04.969Z,42.20
2018-03-08T18:16:32.543Z,42.10
2018-03-08T18:19:00.127Z,42.30
2018-03-08T18:21:27.747Z,42.40
2018-03-08T18:23:55.352Z,42.10
2018-03-08T18:26:23.686Z,42.40
2018-03-08T18:28:51.308Z,42.40
2018-03-08T18:31:18.883Z,42.40
2018-03-08T18:33:46.501Z,42.50
2018-03-08T18:36:14.068Z,42.70
2018-03-08T18:41:15.355Z,42.70
2018-03-08T18:43:42.968Z,42.70
2018-03-08T18:46:10.595Z,42.90
2018-03-08T18:48:38.210Z,43.00
2018-03-08T18:51:06.601Z,43.10
2018-03-08T18:53:34.177Z,43.10
2018-03-08T18:56:02.621Z,43.30
2018-03-08T18:58:30.230Z,43.20
2018-03-08T19:00:57.840Z,43.50
2018-03-08T19:03:25.450Z,43.10
2018-03-08T19:05:53.023Z,43.20
2018-03-08T19:08:20.643Z,43.50
2018-03-08T19:10:48.980Z,43.40
2018-03-08T19:13:16.583Z,43.40
2018-03-08T19:15:44.138Z,43.60
2018-03-08T19:18:11.755Z,43.70
2018-03-08T19:20:39.326Z,43.90
2018-03-08T19:23:06.886Z,44.00
2018-03-08T19:25:34.479Z,44.40
2018-03-08T19:28:02.088Z,44.40
2018-03-08T19:30:29.706Z,44.40
2018-03-08T19:32:57.313Z,44.50
2018-03-08T19:35:24.878Z,45.10
2018-03-08T19:37:52.492Z,45.40
2018-03-08T19:40:20.103Z,45.80
2018-03-08T19:42:47.667Z,46.50
2018-03-08T19:45:15.232Z,46.10
2018-03-08T19:47:42.861Z,46.00
2018-03-08T19:50:11.189Z,46.00
2018-03-08T19:52:38.807Z,46.00
2018-03-08T19:55:07.161Z,45.30
2018-03-08T19:57:35.518Z,45.20
2018-03-08T20:00:03.128Z,45.20
2018-03-08T20:02:30.785Z,45.40
2018-03-08T20:04:59.118Z,45.20
2018-03-08T20:07:26.734Z,45.20
2018-03-08T20:09:54.324Z,45.50
2018-03-08T20:12:21.926Z,45.50
2018-03-08T20:14:49.612Z,45.80
2018-03-08T20:17:17.947Z,45.80
2018-03-08T20:19:45.585Z,45.80
2018-03-08T20:22:13.142Z,46.10
2018-03-08T20:24:40.818Z,46.40
2018-03-08T20:27:08.487Z,46.80
2018-03-08T20:29:36.078Z,47.30
2018-03-08T20:32:03.682Z,48.00
2018-03-08T20:34:31.258Z,48.40
2018-03-08T20:36:58.862Z,48.80
2018-03-08T20:39:26.443Z,49.00
2018-03-08T20:41:54.084Z,49.20
2018-03-08T20:44:21.671Z,50.20
2018-03-08T20:46:50.054Z,49.50
2018-03-08T20:49:18.389Z,49.20
2018-03-08T20:51:45.984Z,49.20
2018-03-08T20:54:14.376Z,48.50
2018-03-08T20:56:41.996Z,48.50
2018-03-08T20:59:09.609Z,48.70
2018-03-08T21:01:37.647Z,49.90
2018-03-08T21:04:06.106Z,51.40
2018-03-08T21:06:33.688Z,51.50
2018-03-08T21:09:01.255Z,52.00
2018-03-08T21:11:29.633Z,53.90
2018-03-08T21:13:57.983Z,54.50
2018-03-08T21:16:25.597Z,54.50
2018-03-08T21:18:53.161Z,57.50
2018-03-08T21:21:20.798Z,59.50
2018-03-08T21:23:49.145Z,65.10
2018-03-08T21:26:16.754Z,65.00
2018-03-08T21:28:45.123Z,69.40
2018-03-08T21:31:13.486Z,70.80
2018-03-08T21:33:41.092Z,70.80
2018-03-08T21:36:08.732Z,70.30
2018-03-08T21:38:37.122Z,68.50
2018-03-08T21:41:04.701Z,68.50
2018-03-08T21:43:32.316Z,69.30
2018-03-08T21:45:59.935Z,69.90
2018-03-08T21:48:27.496Z,70.60
2018-03-08T21:50:55.085Z,70.70
2018-03-08T21:53:22.699Z,70.30
2018-03-08T21:55:50.340Z,70.50
2018-03-08T21:58:18.707Z,70.60
2018-03-08T22:00:46.255Z,70.50
2018-03-08T22:03:13.885Z,70.30
2018-03-08T22:05:41.448Z,71.10
2018-03-08T22:08:09.056Z,71.50
2018-03-08T22:10:37.390Z,72.10
2018-03-08T22:13:04.982Z,72.10
2018-03-08T22:15:32.580Z,71.60
2018-03-08T22:18:00.140Z,71.60
2018-03-08T22:20:27.759Z,71.40
2018-03-08T22:22:55.351Z,71.80
2018-03-08T22:25:23.685Z,72.20
2018-03-08T22:27:51.293Z,72.20
2018-03-08T22:30:19.657Z,73.30
2018-03-08T22:32:47.225Z,73.30
2018-03-08T22:35:15.620Z,73.80
2018-03-08T22:37:43.954Z,73.60
2018-03-08T22:42:44.398Z,73.70
2018-03-08T22:45:12.026Z,73.50
2018-03-08T22:47:39.596Z,73.50
2018-03-08T22:50:07.204Z,73.90
2018-03-08T22:52:34.777Z,73.60
2018-03-08T22:55:03.306Z,73.00
2018-03-08T22:57:30.910Z,72.80
2018-03-08T22:59:58.498Z,73.50
2018-03-08T23:02:32.541Z,73.70
2018-03-08T23:05:00.206Z,73.70
2018-03-08T23:07:27.754Z,74.00
2018-03-08T23:09:55.396Z,73.80
2018-03-08T23:12:23.719Z,74.10
2018-03-08T23:14:51.271Z,74.10
2018-03-08T23:17:18.889Z,74.00
2018-03-08T23:19:47.279Z,73.40
2018-03-08T23:22:14.845Z,73.40
2018-03-08T23:24:42.406Z,73.40
2018-03-08T23:27:10.039Z,73.00
2018-03-08T23:29:37.626Z,73.00
2018-03-08T23:32:05.232Z,74.70
2018-03-08T23:34:32.811Z,74.40
2018-03-08T23:37:00.396Z,74.30
2018-03-08T23:39:28.767Z,75.10
2018-03-08T23:41:56.326Z,75.10
2018-03-08T23:44:24.722Z,75.80
2018-03-08T23:46:53.042Z,76.20
2018-03-08T23:49:20.646Z,76.20
2018-03-08T23:51:49.021Z,75.30
2018-03-08T23:54:16.600Z,74.90
2018-03-08T23:56:44.950Z,75.30
2018-03-08T23:59:12.563Z,75.30
